createdAt,value
2023-05-21T00:00:22.257Z,12.00
2023-05-21T00:02:48.935Z,11.90
2023-05-21T00:05:17.139Z,11.67
2023-05-21T00:07:44.394Z,11.70
2023-05-21T00:10:11.075Z,12.60
2023-05-21T00:12:37.532Z,12.53
2023-05-21T00:15:04.608Z,13.67
2023-05-21T00:17:31.068Z,12.97
2023-05-21T00:19:57.592Z,11.90
2023-05-21T00:22:24.125Z,12.90
2023-05-21T00:24:50.717Z,12.97
2023-05-21T00:27:17.461Z,13.17
2023-05-21T00:29:44.466Z,12.77
2023-05-21T00:32:11.186Z,13.33
2023-05-21T00:34:38.293Z,14.73
2023-05-21T00:37:05.000Z,12.30
2023-05-21T00:39:31.482Z,13.97
2023-05-21T00:41:57.986Z,12.57
2023-05-21T00:44:25.492Z,12.97
2023-05-21T00:46:53.862Z,13.27
2023-05-21T00:49:24.549Z,12.30
2023-05-21T00:51:51.944Z,12.37
2023-05-21T00:54:18.973Z,13.17
2023-05-21T00:56:46.628Z,12.23
2023-05-21T00:59:15.829Z,12.83
2023-05-21T01:01:45.501Z,14.33
2023-05-21T01:04:12.516Z,13.90
2023-05-21T01:06:39.018Z,12.47
2023-05-21T01:09:07.173Z,13.23
2023-05-21T01:11:43.675Z,14.33
2023-05-21T01:14:12.671Z,13.97
2023-05-21T01:16:42.392Z,12.00
2023-05-21T01:19:11.587Z,12.40
2023-05-21T01:21:44.865Z,13.07
2023-05-21T01:26:54.997Z,12.30
2023-05-21T01:29:21.781Z,12.87
2023-05-21T01:32:18.129Z,11.70
2023-05-21T01:34:58.255Z,11.53
2023-05-21T01:37:30.025Z,12.70
2023-05-21T01:40:03.891Z,12.30
2023-05-21T01:42:32.064Z,11.60
2023-05-21T01:45:00.651Z,12.70
2023-05-21T01:47:31.312Z,12.40
2023-05-21T01:49:59.683Z,13.43
2023-05-21T01:52:26.243Z,12.67
2023-05-21T01:54:54.372Z,12.60
2023-05-21T01:57:21.651Z,12.67
2023-05-21T01:59:48.167Z,13.27
2023-05-21T02:02:14.676Z,13.97
2023-05-21T02:04:41.382Z,13.53
2023-05-21T02:07:08.087Z,16.60
2023-05-21T02:09:34.597Z,13.30
2023-05-21T02:12:01.283Z,17.63
2023-05-21T02:14:27.707Z,13.70
2023-05-21T02:16:54.145Z,13.80
2023-05-21T02:19:20.702Z,14.43
2023-05-21T02:21:47.245Z,14.53
2023-05-21T02:24:14.064Z,13.57
2023-05-21T02:26:41.007Z,12.50
2023-05-21T02:29:07.438Z,13.90
2023-05-21T02:31:33.871Z,13.50
2023-05-21T02:34:00.911Z,13.13
2023-05-21T02:36:28.801Z,14.07
2023-05-21T02:38:57.924Z,13.37
2023-05-21T02:41:24.460Z,13.80
2023-05-21T02:43:51.134Z,12.70
2023-05-21T02:46:17.657Z,13.93
2023-05-21T02:48:44.123Z,14.37
2023-05-21T02:51:10.696Z,13.43
2023-05-21T02:53:37.133Z,18.03
2023-05-21T02:56:03.872Z,13.43
2023-05-21T02:58:30.827Z,13.10
2023-05-21T03:00:57.370Z,14.53
2023-05-21T03:03:24.017Z,13.70
2023-05-21T03:05:50.507Z,12.60
2023-05-21T03:08:17.032Z,13.20
2023-05-21T03:10:43.470Z,12.57
2023-05-21T03:13:10.117Z,14.30
2023-05-21T03:15:38.796Z,13.57
2023-05-21T03:18:05.444Z,13.90
2023-05-21T03:20:32.682Z,13.40
2023-05-21T03:23:00.460Z,14.37
2023-05-21T03:25:26.928Z,14.07
2023-05-21T03:27:53.426Z,13.57
2023-05-21T03:30:19.962Z,13.40
2023-05-21T03:32:47.685Z,13.07
2023-05-21T03:35:14.199Z,13.20
2023-05-21T03:37:40.630Z,15.03
2023-05-21T03:40:07.925Z,12.47
2023-05-21T03:42:34.501Z,13.90
2023-05-21T03:45:01.078Z,12.23
2023-05-21T03:47:27.598Z,15.73
2023-05-21T03:49:54.103Z,13.13
2023-05-21T03:52:20.740Z,14.77
2023-05-21T03:54:47.201Z,13.57
2023-05-21T03:57:13.669Z,13.70
2023-05-21T03:59:40.094Z,12.60
2023-05-21T04:02:06.554Z,12.73
2023-05-21T04:04:33.815Z,13.97
2023-05-21T04:07:00.932Z,12.97
2023-05-21T04:09:29.582Z,16.00
2023-05-21T04:11:56.078Z,14.07
2023-05-21T04:14:23.356Z,14.20
2023-05-21T04:16:49.919Z,13.87
2023-05-21T04:19:16.433Z,13.33
2023-05-21T04:21:44.932Z,14.27
2023-05-21T04:24:11.684Z,13.40
2023-05-21T04:26:38.214Z,12.77
2023-05-21T04:29:04.955Z,14.50
2023-05-21T04:31:32.501Z,15.87
2023-05-21T04:33:59.489Z,16.87
2023-05-21T04:36:29.027Z,14.03
2023-05-21T04:38:55.845Z,15.90
2023-05-21T04:41:22.394Z,13.43
2023-05-21T04:43:48.872Z,14.10
2023-05-21T04:46:15.441Z,16.87
2023-05-21T04:48:42.279Z,13.30
2023-05-21T04:51:08.875Z,13.87
2023-05-21T04:53:35.919Z,13.97
2023-05-21T04:56:03.150Z,15.40
2023-05-21T04:58:29.604Z,14.40
2023-05-21T05:00:56.087Z,12.87
2023-05-21T05:03:22.713Z,13.23
2023-05-21T05:05:49.229Z,13.70
2023-05-21T05:08:16.315Z,14.63
2023-05-21T05:10:42.913Z,15.83
2023-05-21T05:13:09.846Z,15.23
2023-05-21T05:15:36.681Z,15.30
2023-05-21T05:18:03.569Z,15.37
2023-05-21T05:20:30.053Z,14.37
2023-05-21T05:22:56.512Z,14.63
2023-05-21T05:25:23.631Z,14.57
2023-05-21T05:27:50.097Z,14.57
2023-05-21T05:30:17.030Z,15.60
2023-05-21T05:32:43.499Z,19.20
2023-05-21T05:35:10.391Z,14.80
2023-05-21T05:37:36.894Z,14.77
2023-05-21T05:40:04.583Z,15.53
2023-05-21T05:42:31.362Z,17.10
2023-05-21T05:44:57.848Z,17.57
2023-05-21T05:47:24.301Z,16.70
2023-05-21T05:49:51.243Z,17.03
2023-05-21T05:52:17.790Z,17.13
2023-05-21T05:54:44.205Z,19.20
2023-05-21T05:57:10.753Z,19.07
2023-05-21T05:59:37.228Z,20.90
2023-05-21T06:02:04.034Z,20.17
2023-05-21T06:04:30.603Z,20.10
2023-05-21T06:07:00.906Z,17.50
2023-05-21T06:09:30.422Z,20.03
2023-05-21T06:11:57.009Z,18.07
2023-05-21T06:14:23.477Z,20.00
2023-05-21T06:16:49.979Z,20.00
2023-05-21T06:19:16.480Z,22.10
2023-05-21T06:21:43.043Z,18.00
2023-05-21T06:24:09.485Z,18.37
2023-05-21T06:26:36.225Z,19.87
2023-05-21T06:29:03.824Z,20.67
2023-05-21T06:31:33.020Z,20.10
2023-05-21T06:36:29.810Z,20.53
2023-05-21T06:38:57.111Z,22.00
2023-05-21T06:41:23.789Z,20.17
2023-05-21T06:43:50.233Z,19.60
2023-05-21T06:46:16.711Z,19.63
2023-05-21T06:48:44.177Z,23.23
2023-05-21T06:51:10.636Z,18.70
2023-05-21T06:53:37.100Z,22.37
2023-05-21T06:56:03.724Z,19.77
2023-05-21T06:58:31.348Z,19.70
2023-05-21T07:00:59.005Z,18.37
2023-05-21T07:03:25.899Z,21.23
2023-05-21T07:05:53.182Z,19.27
2023-05-21T07:08:22.300Z,19.53
2023-05-21T07:10:49.768Z,18.63
2023-05-21T07:13:16.411Z,19.60
2023-05-21T07:15:42.882Z,20.60
2023-05-21T07:18:09.820Z,17.50
2023-05-21T07:20:36.388Z,21.87
2023-05-21T07:23:02.847Z,19.43
2023-05-21T07:25:29.267Z,17.73
2023-05-21T07:27:55.795Z,20.17
2023-05-21T07:30:22.438Z,17.33
2023-05-21T07:32:48.969Z,20.30
2023-05-21T07:35:15.564Z,18.97
2023-05-21T07:37:42.199Z,17.07
2023-05-21T07:40:09.079Z,20.20
2023-05-21T07:42:35.527Z,18.73
2023-05-21T07:45:02.392Z,21.07
2023-05-21T07:47:28.832Z,19.13
2023-05-21T07:49:55.458Z,21.27
2023-05-21T07:52:22.018Z,17.03
2023-05-21T07:54:48.525Z,18.63
2023-05-21T07:57:14.966Z,18.27
2023-05-21T07:59:41.431Z,21.10
2023-05-21T08:02:07.965Z,17.70
2023-05-21T08:04:34.551Z,18.63
2023-05-21T08:07:01.000Z,23.30
2023-05-21T08:09:27.445Z,15.57
2023-05-21T08:11:53.871Z,15.43
2023-05-21T08:14:20.374Z,22.67
2023-05-21T08:16:46.910Z,16.60
2023-05-21T08:19:13.513Z,16.07
2023-05-21T08:21:39.988Z,15.67
2023-05-21T08:24:07.077Z,16.60
2023-05-21T08:26:33.817Z,17.47
2023-05-21T08:29:00.731Z,14.50
2023-05-21T08:31:27.305Z,15.30
2023-05-21T08:33:56.318Z,15.20
2023-05-21T08:36:22.859Z,15.73
2023-05-21T08:38:49.302Z,15.50
2023-05-21T08:41:16.742Z,15.40
2023-05-21T08:43:48.051Z,15.57
2023-05-21T08:46:18.949Z,16.00
2023-05-21T08:48:47.052Z,16.20
2023-05-21T08:51:13.747Z,15.10
2023-05-21T08:53:40.461Z,15.60
2023-05-21T08:56:07.015Z,14.90
2023-05-21T08:58:33.925Z,16.47
2023-05-21T09:01:00.623Z,15.13
2023-05-21T09:03:29.224Z,15.53
2023-05-21T09:05:56.674Z,14.30
2023-05-21T09:08:29.563Z,16.07
2023-05-21T09:10:56.078Z,15.70
2023-05-21T09:13:25.477Z,15.63
2023-05-21T09:15:52.106Z,15.33
2023-05-21T09:18:18.562Z,15.93
2023-05-21T09:20:45.690Z,18.10
2023-05-21T09:23:16.770Z,14.90
2023-05-21T09:25:47.852Z,15.13
2023-05-21T09:28:16.108Z,15.07
2023-05-21T09:30:51.994Z,15.17
2023-05-21T09:33:31.618Z,16.63
2023-05-21T09:35:58.300Z,18.03
2023-05-21T09:38:26.206Z,14.23
2023-05-21T09:40:55.750Z,14.37
2023-05-21T09:43:22.287Z,15.23
2023-05-21T09:45:53.856Z,15.87
2023-05-21T09:48:56.153Z,15.10
2023-05-21T09:51:22.637Z,15.47
2023-05-21T09:53:53.492Z,16.80
2023-05-21T09:56:24.830Z,15.70
2023-05-21T09:58:54.700Z,17.40
2023-05-21T10:01:21.561Z,15.33
2023-05-21T10:03:53.923Z,14.83
2023-05-21T10:06:21.069Z,14.37
2023-05-21T10:08:51.920Z,14.97
2023-05-21T10:11:19.351Z,15.03
2023-05-21T10:13:52.999Z,12.57
2023-05-21T10:16:19.798Z,18.90
2023-05-21T10:18:47.121Z,15.37
2023-05-21T10:21:14.029Z,15.83
2023-05-21T10:23:42.705Z,14.70
2023-05-21T10:26:09.248Z,15.83
2023-05-21T10:28:36.770Z,14.87
2023-05-21T10:31:04.499Z,15.40
2023-05-21T10:33:32.082Z,15.50
2023-05-21T10:35:59.793Z,16.30
2023-05-21T10:38:27.837Z,16.63
2023-05-21T10:40:55.761Z,14.10
2023-05-21T10:43:38.035Z,15.83
2023-05-21T10:46:19.788Z,15.40
2023-05-21T10:49:13.923Z,17.70
2023-05-21T10:52:17.620Z,14.73
2023-05-21T10:54:54.341Z,14.53
2023-05-21T10:57:51.558Z,13.40
2023-05-21T11:00:21.109Z,15.50
2023-05-21T11:02:49.525Z,14.40
2023-05-21T11:05:16.015Z,19.27
2023-05-21T11:07:57.868Z,15.90
2023-05-21T11:10:30.133Z,14.33
2023-05-21T11:13:07.134Z,14.93
2023-05-21T11:16:05.126Z,15.70
2023-05-21T11:18:40.256Z,15.40
2023-05-21T11:21:10.199Z,14.20
2023-05-21T11:23:54.382Z,14.17
2023-05-21T11:26:26.227Z,15.53
2023-05-21T11:29:04.967Z,15.03
2023-05-21T11:31:39.343Z,13.77
2023-05-21T11:34:28.125Z,15.17
2023-05-21T11:37:16.100Z,15.00
2023-05-21T11:39:43.377Z,14.83
2023-05-21T11:42:10.048Z,14.73
2023-05-21T11:44:40.104Z,15.30
2023-05-21T11:47:07.992Z,15.63
2023-05-21T11:49:35.430Z,16.20
2023-05-21T11:52:03.019Z,15.00
2023-05-21T11:54:36.898Z,14.97
2023-05-21T11:57:07.257Z,13.93
2023-05-21T11:59:35.014Z,15.23
2023-05-21T12:02:02.267Z,17.00
2023-05-21T12:04:36.512Z,16.57
2023-05-21T12:07:09.746Z,15.00
2023-05-21T12:09:40.027Z,14.00
2023-05-21T12:12:09.406Z,13.63
2023-05-21T12:14:36.596Z,15.43
2023-05-21T12:17:04.465Z,13.53
2023-05-21T12:19:34.859Z,14.00
2023-05-21T12:22:05.434Z,14.87
2023-05-21T12:24:32.630Z,14.47
2023-05-21T12:27:03.759Z,13.93
2023-05-21T12:29:31.957Z,13.70
2023-05-21T12:32:02.765Z,13.60
2023-05-21T12:34:39.405Z,13.50
2023-05-21T12:37:07.896Z,13.07
2023-05-21T12:39:39.184Z,13.10
2023-05-21T12:42:07.002Z,16.90
2023-05-21T12:44:35.372Z,14.83
2023-05-21T12:47:03.561Z,14.47
2023-05-21T12:49:39.027Z,13.70
2023-05-21T12:52:09.255Z,14.07
2023-05-21T12:54:38.291Z,13.97
2023-05-21T12:57:08.739Z,13.57
2023-05-21T13:00:08.887Z,12.27
2023-05-21T13:02:40.018Z,13.67
2023-05-21T13:05:11.339Z,15.23
2023-05-21T13:07:39.561Z,13.33
2023-05-21T13:10:06.968Z,14.40
2023-05-21T13:12:34.309Z,13.10
2023-05-21T13:15:03.328Z,14.07
2023-05-21T13:17:29.831Z,14.77
2023-05-21T13:20:08.188Z,14.47
2023-05-21T13:22:36.738Z,16.50
2023-05-21T13:25:03.375Z,14.43
2023-05-21T13:27:29.844Z,14.03
2023-05-21T13:29:56.503Z,12.83
2023-05-21T13:32:23.120Z,13.60
2023-05-21T13:34:49.684Z,14.30
2023-05-21T13:37:16.184Z,13.83
2023-05-21T13:39:42.619Z,13.33
2023-05-21T13:42:09.126Z,13.33
2023-05-21T13:44:36.615Z,13.73
2023-05-21T13:47:04.128Z,15.37
2023-05-21T13:49:30.712Z,13.23
2023-05-21T13:51:58.186Z,14.23
2023-05-21T13:54:24.614Z,14.43
2023-05-21T13:56:51.146Z,14.13
2023-05-21T13:59:17.670Z,14.10
2023-05-21T14:01:48.053Z,13.63
2023-05-21T14:04:14.606Z,15.47
2023-05-21T14:06:41.195Z,13.07
2023-05-21T14:09:08.037Z,13.50
2023-05-21T14:11:35.082Z,15.80
2023-05-21T14:14:02.859Z,13.90
2023-05-21T14:16:29.354Z,14.37
2023-05-21T14:18:57.269Z,14.73
2023-05-21T14:21:24.406Z,15.47
2023-05-21T14:23:51.447Z,14.20
2023-05-21T14:26:18.196Z,12.57
2023-05-21T14:28:45.310Z,13.47
2023-05-21T14:31:12.433Z,14.87
2023-05-21T14:33:39.001Z,13.83
2023-05-21T14:36:05.772Z,13.33
2023-05-21T14:38:32.319Z,14.73
2023-05-21T14:40:58.814Z,12.90
2023-05-21T14:43:25.283Z,13.30
2023-05-21T14:45:51.850Z,13.80
2023-05-21T14:48:22.654Z,16.00
2023-05-21T14:50:51.103Z,14.43
2023-05-21T14:53:18.574Z,14.40
2023-05-21T14:55:45.731Z,14.70
2023-05-21T14:58:12.317Z,13.80
2023-05-21T15:00:38.832Z,13.30
2023-05-21T15:03:05.692Z,13.90
2023-05-21T15:05:32.314Z,15.37
2023-05-21T15:07:59.006Z,13.87
2023-05-21T15:10:27.022Z,13.53
2023-05-21T15:12:53.889Z,13.93
2023-05-21T15:15:23.263Z,13.97
2023-05-21T15:17:50.660Z,12.93
2023-05-21T15:20:17.812Z,13.43
2023-05-21T15:22:44.272Z,12.30
2023-05-21T15:25:10.810Z,13.93
2023-05-21T15:27:37.234Z,13.60
2023-05-21T15:30:04.740Z,13.93
2023-05-21T15:32:31.649Z,14.30
2023-05-21T15:34:58.201Z,15.03
2023-05-21T15:37:24.857Z,14.73
2023-05-21T15:39:51.416Z,15.37
2023-05-21T15:42:17.863Z,13.87
2023-05-21T15:44:44.371Z,13.60
2023-05-21T15:47:10.854Z,14.00
2023-05-21T15:49:37.349Z,13.40
2023-05-21T15:52:04.053Z,14.23
2023-05-21T15:54:30.639Z,14.13
2023-05-21T15:56:57.220Z,13.60
2023-05-21T15:59:25.646Z,14.60
2023-05-21T16:01:52.289Z,12.90
2023-05-21T16:04:21.507Z,15.47
2023-05-21T16:06:47.939Z,21.60
2023-05-21T16:09:17.348Z,15.30
2023-05-21T16:11:44.782Z,13.67
2023-05-21T16:14:12.361Z,13.47
2023-05-21T16:16:39.391Z,14.40
2023-05-21T16:19:06.254Z,12.77
2023-05-21T16:21:33.799Z,12.20
2023-05-21T16:24:00.559Z,14.20
2023-05-21T16:26:27.084Z,11.93
2023-05-21T16:28:53.570Z,12.13
2023-05-21T16:31:20.045Z,14.03
2023-05-21T16:33:46.486Z,12.93
2023-05-21T16:36:13.124Z,13.70
2023-05-21T16:38:39.804Z,15.33
2023-05-21T16:41:06.739Z,14.27
2023-05-21T16:43:33.213Z,13.80
2023-05-21T16:45:59.792Z,12.77
2023-05-21T16:48:26.328Z,13.53
2023-05-21T16:50:52.820Z,14.63
2023-05-21T16:53:19.361Z,14.47
2023-05-21T16:55:45.845Z,16.27
2023-05-21T16:58:13.588Z,14.30
2023-05-21T17:00:40.096Z,14.00
2023-05-21T17:03:06.780Z,14.87
2023-05-21T17:05:33.375Z,14.17
2023-05-21T17:07:59.888Z,14.00
2023-05-21T17:10:26.350Z,13.37
2023-05-21T17:12:52.820Z,15.30
2023-05-21T17:15:19.250Z,16.70
2023-05-21T17:17:45.832Z,16.83
2023-05-21T17:20:12.890Z,16.80
2023-05-21T17:22:39.379Z,16.20
2023-05-21T17:25:06.467Z,18.90
2023-05-21T17:27:32.970Z,16.73
2023-05-21T17:29:59.540Z,15.77
2023-05-21T17:32:26.018Z,16.10
2023-05-21T17:34:53.789Z,16.30
2023-05-21T17:37:20.267Z,15.73
2023-05-21T17:39:46.774Z,16.40
2023-05-21T17:42:13.260Z,14.50
2023-05-21T17:44:39.770Z,14.03
2023-05-21T17:47:06.854Z,16.67
2023-05-21T17:49:33.425Z,16.40
2023-05-21T17:52:00.690Z,15.50
2023-05-21T17:54:27.119Z,15.50
2023-05-21T17:56:53.554Z,14.93
2023-05-21T17:59:21.355Z,15.93
2023-05-21T18:01:47.825Z,14.00
2023-05-21T18:04:14.356Z,13.50
2023-05-21T18:06:40.870Z,13.43
2023-05-21T18:09:07.937Z,12.00
2023-05-21T18:11:34.600Z,11.70
2023-05-21T18:14:01.026Z,11.03
2023-05-21T18:16:30.173Z,11.23
2023-05-21T18:18:57.270Z,10.40
2023-05-21T18:21:26.111Z,11.13
2023-05-21T18:23:52.542Z,11.43
2023-05-21T18:26:20.469Z,10.50
2023-05-21T18:28:47.024Z,10.80
2023-05-21T18:31:13.481Z,10.07
2023-05-21T18:33:40.233Z,11.70
2023-05-21T18:36:06.876Z,10.80
2023-05-21T18:38:33.736Z,10.90
2023-05-21T18:41:01.589Z,11.87
2023-05-21T18:43:28.058Z,10.80
2023-05-21T18:45:54.576Z,10.77
2023-05-21T18:48:20.979Z,11.20
2023-05-21T18:50:47.408Z,11.70
2023-05-21T18:53:13.818Z,11.17
2023-05-21T18:55:40.265Z,11.47
2023-05-21T18:58:06.729Z,11.43
2023-05-21T19:00:34.591Z,11.00
2023-05-21T19:03:02.179Z,11.17
2023-05-21T19:05:29.443Z,11.87
2023-05-21T19:07:57.910Z,13.23
2023-05-21T19:10:25.730Z,13.00
2023-05-21T19:12:52.487Z,13.20
2023-05-21T19:15:18.946Z,12.23
2023-05-21T19:17:45.490Z,14.83
2023-05-21T19:20:22.853Z,11.77
2023-05-21T19:22:49.463Z,11.80
2023-05-21T19:25:15.995Z,12.50
2023-05-21T19:27:42.483Z,11.93
2023-05-21T19:30:09.501Z,12.73
2023-05-21T19:32:36.037Z,12.13
2023-05-21T19:35:04.564Z,13.10
2023-05-21T19:37:31.250Z,12.63
2023-05-21T19:39:57.742Z,12.10
2023-05-21T19:42:24.247Z,12.57
2023-05-21T19:44:50.791Z,12.23
2023-05-21T19:47:17.351Z,13.30
2023-05-21T19:49:43.852Z,14.07
2023-05-21T19:52:10.506Z,13.07
2023-05-21T19:54:36.963Z,13.50
2023-05-21T19:57:03.512Z,13.87
2023-05-21T19:59:29.988Z,13.93
2023-05-21T20:01:56.514Z,14.27
2023-05-21T20:04:23.082Z,14.53
2023-05-21T20:06:49.717Z,13.07
2023-05-21T20:09:17.987Z,13.40
2023-05-21T20:11:44.757Z,14.77
2023-05-21T20:14:11.356Z,14.70
2023-05-21T20:16:37.990Z,14.30
2023-05-21T20:19:04.581Z,14.00
2023-05-21T20:21:34.183Z,14.43
2023-05-21T20:24:00.692Z,14.93
2023-05-21T20:26:27.275Z,13.40
2023-05-21T20:28:54.099Z,16.20
2023-05-21T20:31:21.838Z,14.20
2023-05-21T20:33:50.421Z,17.07
2023-05-21T20:36:17.728Z,14.33
2023-05-21T20:38:45.397Z,15.03
2023-05-21T20:41:12.315Z,13.97
2023-05-21T20:43:39.021Z,13.97
2023-05-21T20:46:05.810Z,13.50
2023-05-21T20:48:32.456Z,14.83
2023-05-21T20:50:59.878Z,15.87
2023-05-21T20:53:26.791Z,15.37
2023-05-21T20:55:54.674Z,15.47
2023-05-21T20:58:23.778Z,15.53
2023-05-21T21:00:50.390Z,15.07
2023-05-21T21:03:18.034Z,15.23
2023-05-21T21:05:44.928Z,14.27
2023-05-21T21:08:12.244Z,14.60
2023-05-21T21:10:41.245Z,16.03
2023-05-21T21:13:08.242Z,16.30
2023-05-21T21:15:35.161Z,16.90
2023-05-21T21:18:01.773Z,14.90
2023-05-21T21:20:28.276Z,16.30
2023-05-21T21:22:54.803Z,14.63
2023-05-21T21:25:21.511Z,16.27
2023-05-21T21:27:47.945Z,15.03
2023-05-21T21:30:14.524Z,15.70
2023-05-21T21:32:41.238Z,17.13
2023-05-21T21:35:08.028Z,14.70
2023-05-21T21:37:34.601Z,15.83
2023-05-21T21:40:01.006Z,17.17
2023-05-21T21:42:27.577Z,17.33
2023-05-21T21:44:54.022Z,16.97
2023-05-21T21:47:20.593Z,16.60
2023-05-21T21:49:48.026Z,16.77
2023-05-21T21:52:14.677Z,15.97
2023-05-21T21:54:41.238Z,17.90
2023-05-21T21:57:07.832Z,16.77
2023-05-21T21:59:34.577Z,18.30
2023-05-21T22:02:01.212Z,16.83
2023-05-21T22:04:27.916Z,16.37
2023-05-21T22:06:54.486Z,17.03
2023-05-21T22:09:22.529Z,17.60
2023-05-21T22:11:49.303Z,16.03
2023-05-21T22:14:15.908Z,17.47
2023-05-21T22:16:43.191Z,16.60
2023-05-21T22:19:10.165Z,17.77
2023-05-21T22:21:36.833Z,17.70
2023-05-21T22:24:04.034Z,18.27
2023-05-21T22:26:30.540Z,17.10
2023-05-21T22:28:59.052Z,20.00
2023-05-21T22:31:26.664Z,18.03
2023-05-21T22:33:53.189Z,18.23
2023-05-21T22:36:19.617Z,16.83
2023-05-21T22:38:46.228Z,16.60
2023-05-21T22:41:12.730Z,19.23
2023-05-21T22:43:39.289Z,18.33
2023-05-21T22:46:05.810Z,17.90
2023-05-21T22:48:34.327Z,19.00
2023-05-21T22:51:01.606Z,19.63
2023-05-21T22:53:28.214Z,19.07
2023-05-21T22:55:54.645Z,19.57
2023-05-21T22:58:21.113Z,18.80
2023-05-21T23:00:47.998Z,21.23
2023-05-21T23:03:14.938Z,19.20
2023-05-21T23:05:41.459Z,18.67
2023-05-21T23:08:08.109Z,20.47
2023-05-21T23:10:35.552Z,20.23
2023-05-21T23:13:02.090Z,19.43
2023-05-21T23:15:29.550Z,19.47
2023-05-21T23:17:56.838Z,19.43
2023-05-21T23:20:24.559Z,18.87
2023-05-21T23:22:51.076Z,19.90
2023-05-21T23:25:17.809Z,19.37
2023-05-21T23:27:44.359Z,21.40
2023-05-21T23:30:11.975Z,19.40
2023-05-21T23:32:38.527Z,20.07
2023-05-21T23:35:05.492Z,20.27
2023-05-21T23:37:31.987Z,22.03
2023-05-21T23:39:58.556Z,19.37
2023-05-21T23:42:25.024Z,21.67
2023-05-21T23:44:51.496Z,20.80
2023-05-21T23:47:18.069Z,18.93
2023-05-21T23:49:44.580Z,23.40
2023-05-21T23:52:13.042Z,21.57
2023-05-21T23:54:39.490Z,21.30
2023-05-21T23:57:06.303Z,22.00
2023-05-21T23:59:32.822Z,20.77
